sensor_id;sensor_type;location;lat;lon;timestamp;P1;durP1;ratioP1;P2;durP2;ratioP2
57903;SDS011;43720;47.462;19.030;2022-07-29T03:57:29;6.32;;;3.03;;
57903;SDS011;43720;47.462;19.030;2022-07-29T04:00:32;6.40;;;3.05;;
57903;SDS011;43720;47.462;19.030;2022-07-29T04:03:36;4.03;;;3.10;;
57903;SDS011;43720;47.462;19.030;2022-07-29T04:06:39;4.32;;;3.08;;
57903;SDS011;43720;47.462;19.030;2022-07-29T04:09:42;5.03;;;3.25;;
57903;SDS011;43720;47.462;19.030;2022-07-29T04:12:45;7.18;;;3.25;;
57903;SDS011;43720;47.462;19.030;2022-07-29T04:15:47;5.78;;;3.62;;
57903;SDS011;43720;47.462;19.030;2022-07-29T04:18:49;5.55;;;3.12;;
57903;SDS011;43720;47.462;19.030;2022-07-29T04:21:52;7.47;;;4.57;;
57903;SDS011;43720;47.462;19.030;2022-07-29T04:24:54;6.90;;;3.25;;
57903;SDS011;43720;47.462;19.030;2022-07-29T04:31:03;5.70;;;3.35;;
57903;SDS011;43720;47.462;19.030;2022-07-29T04:34:05;7.93;;;3.33;;
57903;SDS011;43720;47.462;19.030;2022-07-29T04:37:08;5.37;;;3.67;;
57903;SDS011;43720;47.462;19.030;2022-07-29T04:40:10;8.18;;;4.10;;
57903;SDS011;43720;47.462;19.030;2022-07-29T04:43:14;7.55;;;3.85;;
57903;SDS011;43720;47.462;19.030;2022-07-29T04:46:23;6.25;;;3.40;;
57903;SDS011;43720;47.462;19.030;2022-07-29T04:49:25;5.68;;;3.53;;
57903;SDS011;43720;47.462;19.030;2022-07-29T04:52:28;7.32;;;3.55;;
57903;SDS011;43720;47.462;19.030;2022-07-29T04:55:30;4.25;;;3.42;;
57903;SDS011;43720;47.462;19.030;2022-07-29T04:58:36;4.32;;;3.08;;
57903;SDS011;43720;47.462;19.030;2022-07-29T05:01:38;4.18;;;3.25;;
57903;SDS011;43720;47.462;19.030;2022-07-29T05:04:40;7.75;;;3.08;;
57903;SDS011;43720;47.462;19.030;2022-07-29T05:07:42;7.20;;;3.22;;
57903;SDS011;43720;47.462;19.030;2022-07-29T05:10:45;4.50;;;3.22;;
57903;SDS011;43720;47.462;19.030;2022-07-29T05:13:47;5.40;;;2.83;;
57903;SDS011;43720;47.462;19.030;2022-07-29T05:16:50;5.30;;;3.03;;
57903;SDS011;43720;47.462;19.030;2022-07-29T05:19:52;7.37;;;3.20;;
57903;SDS011;43720;47.462;19.030;2022-07-29T05:22:56;6.43;;;3.55;;
57903;SDS011;43720;47.462;19.030;2022-07-29T05:25:59;4.93;;;3.70;;
57903;SDS011;43720;47.462;19.030;2022-07-29T05:29:01;7.32;;;3.25;;
57903;SDS011;43720;47.462;19.030;2022-07-29T05:32:03;4.50;;;3.45;;
57903;SDS011;43720;47.462;19.030;2022-07-29T05:35:06;6.78;;;3.37;;
57903;SDS011;43720;47.462;19.030;2022-07-29T05:38:09;4.87;;;3.70;;
57903;SDS011;43720;47.462;19.030;2022-07-29T05:41:11;4.97;;;3.55;;
57903;SDS011;43720;47.462;19.030;2022-07-29T05:44:13;8.50;;;3.75;;
57903;SDS011;43720;47.462;19.030;2022-07-29T05:47:16;5.55;;;3.53;;
57903;SDS011;43720;47.462;19.030;2022-07-29T05:50:18;5.90;;;3.72;;
57903;SDS011;43720;47.462;19.030;2022-07-29T05:53:21;8.85;;;3.47;;
57903;SDS011;43720;47.462;19.030;2022-07-29T05:56:23;6.97;;;3.10;;
57903;SDS011;43720;47.462;19.030;2022-07-29T05:59:26;6.80;;;3.75;;
57903;SDS011;43720;47.462;19.030;2022-07-29T06:02:31;5.60;;;3.60;;
57903;SDS011;43720;47.462;19.030;2022-07-29T06:05:33;8.02;;;3.78;;
57903;SDS011;43720;47.462;19.030;2022-07-29T06:08:36;7.87;;;3.87;;
57903;SDS011;43720;47.462;19.030;2022-07-29T06:11:39;15.63;;;3.75;;
57903;SDS011;43720;47.462;19.030;2022-07-29T06:14:41;9.13;;;4.18;;
57903;SDS011;43720;47.462;19.030;2022-07-29T06:17:43;8.80;;;3.78;;
57903;SDS011;43720;47.462;19.030;2022-07-29T06:21:06;9.70;;;4.07;;
57903;SDS011;43720;47.462;19.030;2022-07-29T06:24:10;8.57;;;3.70;;
57903;SDS011;43720;47.462;19.030;2022-07-29T06:27:14;10.00;;;4.00;;
57903;SDS011;43720;47.462;19.030;2022-07-29T06:30:18;5.78;;;4.28;;
57903;SDS011;43720;47.462;19.030;2022-07-29T06:33:20;7.55;;;3.72;;
57903;SDS011;43720;47.462;19.030;2022-07-29T06:36:22;10.18;;;4.22;;
57903;SDS011;43720;47.462;19.030;2022-07-29T06:39:25;9.43;;;4.20;;
57903;SDS011;43720;47.462;19.030;2022-07-29T06:42:28;6.28;;;3.65;;
57903;SDS011;43720;47.462;19.030;2022-07-29T06:45:33;7.60;;;3.83;;
57903;SDS011;43720;47.462;19.030;2022-07-29T06:48:36;7.47;;;4.10;;
57903;SDS011;43720;47.462;19.030;2022-07-29T06:51:38;10.52;;;3.40;;
57903;SDS011;43720;47.462;19.030;2022-07-29T06:54:41;8.75;;;3.80;;
57903;SDS011;43720;47.462;19.030;2022-07-29T06:57:49;8.18;;;3.97;;
57903;SDS011;43720;47.462;19.030;2022-07-29T07:00:52;6.57;;;3.75;;
57903;SDS011;43720;47.462;19.030;2022-07-29T07:03:54;4.93;;;3.17;;
57903;SDS011;43720;47.462;19.030;2022-07-29T07:06:57;10.73;;;3.75;;
57903;SDS011;43720;47.462;19.030;2022-07-29T07:09:59;7.68;;;3.70;;
57903;SDS011;43720;47.462;19.030;2022-07-29T07:13:02;10.50;;;4.15;;
57903;SDS011;43720;47.462;19.030;2022-07-29T07:16:04;6.82;;;3.58;;
57903;SDS011;43720;47.462;19.030;2022-07-29T07:19:07;11.15;;;4.20;;
57903;SDS011;43720;47.462;19.030;2022-07-29T07:22:09;10.65;;;4.72;;
57903;SDS011;43720;47.462;19.030;2022-07-29T07:25:13;14.70;;;4.28;;
57903;SDS011;43720;47.462;19.030;2022-07-29T07:28:15;8.15;;;4.43;;
57903;SDS011;43720;47.462;19.030;2022-07-29T07:31:17;5.87;;;3.62;;
57903;SDS011;43720;47.462;19.030;2022-07-29T07:34:20;9.25;;;4.20;;
57903;SDS011;43720;47.462;19.030;2022-07-29T07:37:30;6.22;;;3.83;;
57903;SDS011;43720;47.462;19.030;2022-07-29T07:40:33;11.27;;;3.80;;
57903;SDS011;43720;47.462;19.030;2022-07-29T07:43:36;9.63;;;4.35;;
57903;SDS011;43720;47.462;19.030;2022-07-29T07:46:38;5.65;;;4.18;;
57903;SDS011;43720;47.462;19.030;2022-07-29T07:49:40;7.93;;;3.95;;
57903;SDS011;43720;47.462;19.030;2022-07-29T07:52:50;7.65;;;4.22;;
57903;SDS011;43720;47.462;19.030;2022-07-29T07:55:54;8.23;;;4.20;;
57903;SDS011;43720;47.462;19.030;2022-07-29T07:59:13;9.15;;;4.03;;
57903;SDS011;43720;47.462;19.030;2022-07-29T08:02:15;7.85;;;4.05;;
57903;SDS011;43720;47.462;19.030;2022-07-29T08:05:18;5.47;;;4.10;;
57903;SDS011;43720;47.462;19.030;2022-07-29T08:08:20;8.63;;;3.83;;
57903;SDS011;43720;47.462;19.030;2022-07-29T08:11:23;7.85;;;4.43;;
57903;SDS011;43720;47.462;19.030;2022-07-29T08:14:25;5.37;;;4.00;;
57903;SDS011;43720;47.462;19.030;2022-07-29T08:17:27;6.07;;;4.07;;
57903;SDS011;43720;47.462;19.030;2022-07-29T08:20:30;10.10;;;4.15;;
57903;SDS011;43720;47.462;19.030;2022-07-29T08:23:34;5.20;;;3.72;;
57903;SDS011;43720;47.462;19.030;2022-07-29T08:26:55;9.45;;;4.03;;
57903;SDS011;43720;47.462;19.030;2022-07-29T08:29:58;7.97;;;3.92;;
57903;SDS011;43720;47.462;19.030;2022-07-29T08:33:01;8.13;;;4.85;;
57903;SDS011;43720;47.462;19.030;2022-07-29T08:36:04;13.68;;;4.10;;
57903;SDS011;43720;47.462;19.030;2022-07-29T08:39:07;6.37;;;3.65;;
57903;SDS011;43720;47.462;19.030;2022-07-29T08:42:10;5.60;;;4.18;;
57903;SDS011;43720;47.462;19.030;2022-07-29T08:45:12;7.35;;;4.57;;
57903;SDS011;43720;47.462;19.030;2022-07-29T08:48:16;6.62;;;3.85;;
57903;SDS011;43720;47.462;19.030;2022-07-29T08:51:20;9.13;;;4.50;;
57903;SDS011;43720;47.462;19.030;2022-07-29T08:54:23;8.52;;;4.25;;
57903;SDS011;43720;47.462;19.030;2022-07-29T08:57:26;7.22;;;4.50;;
57903;SDS011;43720;47.462;19.030;2022-07-29T09:00:32;9.75;;;4.00;;
57903;SDS011;43720;47.462;19.030;2022-07-29T09:03:36;6.20;;;3.75;;
57903;SDS011;43720;47.462;19.030;2022-07-29T09:06:42;15.55;;;4.65;;
57903;SDS011;43720;47.462;19.030;2022-07-29T09:09:46;9.90;;;4.55;;
57903;SDS011;43720;47.462;19.030;2022-07-29T09:12:49;5.78;;;3.95;;
57903;SDS011;43720;47.462;19.030;2022-07-29T09:15:51;6.35;;;4.10;;
57903;SDS011;43720;47.462;19.030;2022-07-29T09:18:54;5.70;;;4.10;;
57903;SDS011;43720;47.462;19.030;2022-07-29T09:21:57;5.00;;;3.42;;
57903;SDS011;43720;47.462;19.030;2022-07-29T09:25:01;7.22;;;3.40;;
57903;SDS011;43720;47.462;19.030;2022-07-29T09:28:10;4.78;;;3.42;;
57903;SDS011;43720;47.462;19.030;2022-07-29T09:31:14;8.95;;;3.45;;
57903;SDS011;43720;47.462;19.030;2022-07-29T09:34:17;8.05;;;3.50;;
57903;SDS011;43720;47.462;19.030;2022-07-29T09:37:27;5.70;;;3.08;;
57903;SDS011;43720;47.462;19.030;2022-07-29T09:40:30;8.00;;;3.70;;
57903;SDS011;43720;47.462;19.030;2022-07-29T09:43:33;10.02;;;3.50;;
57903;SDS011;43720;47.462;19.030;2022-07-29T09:46:35;7.87;;;3.28;;
57903;SDS011;43720;47.462;19.030;2022-07-29T09:49:54;7.55;;;3.03;;
57903;SDS011;43720;47.462;19.030;2022-07-29T09:52:59;4.50;;;3.33;;
57903;SDS011;43720;47.462;19.030;2022-07-29T09:56:02;4.43;;;2.95;;
57903;SDS011;43720;47.462;19.030;2022-07-29T09:59:06;5.47;;;3.12;;
57903;SDS011;43720;47.462;19.030;2022-07-29T10:02:12;9.32;;;3.40;;
57903;SDS011;43720;47.462;19.030;2022-07-29T10:05:23;8.43;;;3.50;;
57903;SDS011;43720;47.462;19.030;2022-07-29T10:08:37;4.57;;;3.05;;
57903;SDS011;43720;47.462;19.030;2022-07-29T10:11:39;4.20;;;2.90;;
57903;SDS011;43720;47.462;19.030;2022-07-29T10:14:50;11.12;;;2.95;;
57903;SDS011;43720;47.462;19.030;2022-07-29T10:17:54;9.18;;;3.00;;
57903;SDS011;43720;47.462;19.030;2022-07-29T10:20:59;5.37;;;2.80;;
57903;SDS011;43720;47.462;19.030;2022-07-29T10:24:03;3.30;;;2.95;;
57903;SDS011;43720;47.462;19.030;2022-07-29T10:27:07;5.22;;;2.95;;
57903;SDS011;43720;47.462;19.030;2022-07-29T10:30:11;7.70;;;3.30;;
57903;SDS011;43720;47.462;19.030;2022-07-29T10:43:04;4.60;;;2.62;;
57903;SDS011;43720;47.462;19.030;2022-07-29T10:46:20;6.65;;;2.92;;
57903;SDS011;43720;47.462;19.030;2022-07-29T10:49:26;7.25;;;3.08;;
